Piedmont, Oklahoma
Current Conditions -  °F | °C
As of 11:53 AM on Thursday 30 Oct 2014 (Local Time) from KPWA Reporting Station
Clear Clear  
Wind Chill: 70°   Ceiling: Unl
Heat Index: 70°   Visibility: 9mi
Dew Point: 47°   Wind: 9mph
Humidity: 44%   Direction: 270°W
Pressure: 30.16"   Gusts: NA
Location:  35.64°N, 97.75°W
Report Text: KPWA 301653Z 27008KT 9SM CLR 21/08 A3016 RMK AO2 SLP205 T02110083
Loading
Personal Weather Stations






























Interactive Weather Map
Tropical Storm Tracking
New forecast layout! Learn more

10-Day Weather Forecast

Advertisements
Track Severe Weather on mobile